Terminal Aerodrome Forecast
Issued by NWS Pocatello, ID

Home | Current Version | Previous Version | Text Only | Print | Product List | Glossary On
Versions: 1 2 3 4 5 6 7 8 9 10 11 12 13 14 15 16 17 18
000
FTUS45 KPIH 202300
TAFBYI
TAF
KBYI 202320Z 2100/2124 VRB05KT P6SM VCTS SCT090CB BKN160
     FM210300 VRB05KT P6SM VCSH BKN090 BKN180
     FM211200 14008KT P6SM BKN110 BKN160
     FM211700 25006KT P6SM VCTS SCT060CB BKN100=

USA.gov is the U.S. government's official web portal to all federal, state and local government web resources and services.